sensor_id;sensor_type;location;lat;lon;timestamp;P1;durP1;ratioP1;P2;durP2;ratioP2
16127;SDS011;8168;49.036;7.690;2023-04-01T00:00:12;1.70;;;0.80;;
16127;SDS011;8168;49.036;7.690;2023-04-01T00:02:43;2.97;;;0.83;;
16127;SDS011;8168;49.036;7.690;2023-04-01T00:05:14;1.30;;;0.30;;
16127;SDS011;8168;49.036;7.690;2023-04-01T00:07:46;2.83;;;0.60;;
16127;SDS011;8168;49.036;7.690;2023-04-01T00:10:17;1.37;;;0.67;;
16127;SDS011;8168;49.036;7.690;2023-04-01T00:12:48;1.33;;;0.70;;
16127;SDS011;8168;49.036;7.690;2023-04-01T00:15:18;1.93;;;0.87;;
16127;SDS011;8168;49.036;7.690;2023-04-01T00:17:49;5.63;;;1.03;;
16127;SDS011;8168;49.036;7.690;2023-04-01T00:20:20;2.53;;;0.80;;
16127;SDS011;8168;49.036;7.690;2023-04-01T00:22:51;1.93;;;0.93;;
16127;SDS011;8168;49.036;7.690;2023-04-01T00:25:21;2.20;;;0.50;;
16127;SDS011;8168;49.036;7.690;2023-04-01T00:27:52;2.10;;;0.80;;
16127;SDS011;8168;49.036;7.690;2023-04-01T00:30:23;2.87;;;0.90;;
16127;SDS011;8168;49.036;7.690;2023-04-01T00:32:54;2.57;;;0.80;;
16127;SDS011;8168;49.036;7.690;2023-04-01T00:35:24;1.73;;;0.43;;
16127;SDS011;8168;49.036;7.690;2023-04-01T00:37:55;2.63;;;0.60;;
16127;SDS011;8168;49.036;7.690;2023-04-01T00:40:28;1.37;;;0.30;;
16127;SDS011;8168;49.036;7.690;2023-04-01T00:43:00;3.00;;;0.60;;
16127;SDS011;8168;49.036;7.690;2023-04-01T00:48:05;3.17;;;0.70;;
16127;SDS011;8168;49.036;7.690;2023-04-01T00:50:40;1.33;;;0.50;;
16127;SDS011;8168;49.036;7.690;2023-04-01T00:53:13;1.97;;;0.90;;
16127;SDS011;8168;49.036;7.690;2023-04-01T00:55:49;0.50;;;0.47;;
16127;SDS011;8168;49.036;7.690;2023-04-01T00:58:23;1.73;;;1.10;;
16127;SDS011;8168;49.036;7.690;2023-04-01T01:00:56;1.20;;;0.97;;
16127;SDS011;8168;49.036;7.690;2023-04-01T01:03:28;2.50;;;0.80;;
16127;SDS011;8168;49.036;7.690;2023-04-01T01:09:03;1.17;;;0.67;;
16127;SDS011;8168;49.036;7.690;2023-04-01T01:11:41;2.27;;;0.50;;
16127;SDS011;8168;49.036;7.690;2023-04-01T01:14:27;1.70;;;0.70;;
16127;SDS011;8168;49.036;7.690;2023-04-01T01:17:18;4.00;;;1.03;;
16127;SDS011;8168;49.036;7.690;2023-04-01T01:25:45;1.33;;;0.93;;
16127;SDS011;8168;49.036;7.690;2023-04-01T01:38:07;3.07;;;0.80;;
16127;SDS011;8168;49.036;7.690;2023-04-01T01:40:45;3.60;;;0.70;;
16127;SDS011;8168;49.036;7.690;2023-04-01T01:43:19;1.30;;;0.60;;
16127;SDS011;8168;49.036;7.690;2023-04-01T01:45:54;2.43;;;0.53;;
16127;SDS011;8168;49.036;7.690;2023-04-01T01:48:27;1.80;;;0.60;;
16127;SDS011;8168;49.036;7.690;2023-04-01T01:50:59;1.17;;;0.40;;
16127;SDS011;8168;49.036;7.690;2023-04-01T01:53:31;1.60;;;0.50;;
16127;SDS011;8168;49.036;7.690;2023-04-01T01:56:02;0.60;;;0.50;;
16127;SDS011;8168;49.036;7.690;2023-04-01T01:58:35;2.40;;;0.67;;
16127;SDS011;8168;49.036;7.690;2023-04-01T02:01:14;1.67;;;0.63;;
16127;SDS011;8168;49.036;7.690;2023-04-01T02:03:52;0.50;;;0.50;;
16127;SDS011;8168;49.036;7.690;2023-04-01T02:06:25;1.53;;;0.40;;
16127;SDS011;8168;49.036;7.690;2023-04-01T02:08:59;2.17;;;0.70;;
16127;SDS011;8168;49.036;7.690;2023-04-01T02:11:41;2.23;;;0.83;;
16127;SDS011;8168;49.036;7.690;2023-04-01T02:14:20;0.93;;;0.63;;
16127;SDS011;8168;49.036;7.690;2023-04-01T02:17:02;2.90;;;0.63;;
16127;SDS011;8168;49.036;7.690;2023-04-01T02:19:40;3.53;;;0.60;;
16127;SDS011;8168;49.036;7.690;2023-04-01T02:22:26;3.13;;;0.70;;
16127;SDS011;8168;49.036;7.690;2023-04-01T02:25:01;1.27;;;0.60;;
16127;SDS011;8168;49.036;7.690;2023-04-01T02:27:37;2.27;;;0.93;;
16127;SDS011;8168;49.036;7.690;2023-04-01T02:30:09;1.80;;;0.67;;
16127;SDS011;8168;49.036;7.690;2023-04-01T02:32:40;3.00;;;0.97;;
16127;SDS011;8168;49.036;7.690;2023-04-01T02:35:12;2.63;;;1.03;;
16127;SDS011;8168;49.036;7.690;2023-04-01T02:37:45;3.70;;;0.47;;
16127;SDS011;8168;49.036;7.690;2023-04-01T02:40:18;2.77;;;0.60;;
16127;SDS011;8168;49.036;7.690;2023-04-01T02:42:49;2.53;;;0.97;;
16127;SDS011;8168;49.036;7.690;2023-04-01T02:45:19;1.70;;;0.70;;
16127;SDS011;8168;49.036;7.690;2023-04-01T02:47:50;0.50;;;0.50;;
16127;SDS011;8168;49.036;7.690;2023-04-01T02:50:21;2.90;;;0.60;;
16127;SDS011;8168;49.036;7.690;2023-04-01T02:52:51;2.50;;;1.07;;
16127;SDS011;8168;49.036;7.690;2023-04-01T02:55:22;5.40;;;1.20;;
16127;SDS011;8168;49.036;7.690;2023-04-01T02:57:53;2.53;;;0.53;;
16127;SDS011;8168;49.036;7.690;2023-04-01T03:00:23;3.10;;;0.63;;
16127;SDS011;8168;49.036;7.690;2023-04-01T03:02:54;0.57;;;0.43;;
16127;SDS011;8168;49.036;7.690;2023-04-01T03:05:26;1.93;;;0.63;;
16127;SDS011;8168;49.036;7.690;2023-04-01T03:07:56;3.07;;;0.93;;
16127;SDS011;8168;49.036;7.690;2023-04-01T03:10:27;3.57;;;0.70;;
16127;SDS011;8168;49.036;7.690;2023-04-01T03:12:58;3.43;;;0.70;;
16127;SDS011;8168;49.036;7.690;2023-04-01T03:15:28;1.77;;;0.50;;
16127;SDS011;8168;49.036;7.690;2023-04-01T03:17:59;1.80;;;0.70;;
16127;SDS011;8168;49.036;7.690;2023-04-01T03:20:30;2.87;;;0.90;;
16127;SDS011;8168;49.036;7.690;2023-04-01T03:23:00;1.73;;;0.90;;
16127;SDS011;8168;49.036;7.690;2023-04-01T03:25:31;1.07;;;0.70;;
16127;SDS011;8168;49.036;7.690;2023-04-01T03:28:01;1.90;;;0.77;;
16127;SDS011;8168;49.036;7.690;2023-04-01T03:30:32;4.03;;;1.07;;
16127;SDS011;8168;49.036;7.690;2023-04-01T03:33:03;4.43;;;1.00;;
16127;SDS011;8168;49.036;7.690;2023-04-01T03:35:34;5.07;;;1.20;;
16127;SDS011;8168;49.036;7.690;2023-04-01T03:38:06;4.23;;;1.10;;
16127;SDS011;8168;49.036;7.690;2023-04-01T03:40:36;3.13;;;0.90;;
16127;SDS011;8168;49.036;7.690;2023-04-01T03:43:08;5.60;;;0.73;;
16127;SDS011;8168;49.036;7.690;2023-04-01T03:45:46;3.67;;;1.17;;
16127;SDS011;8168;49.036;7.690;2023-04-01T03:48:17;2.83;;;0.83;;
16127;SDS011;8168;49.036;7.690;2023-04-01T03:50:48;3.33;;;0.70;;
16127;SDS011;8168;49.036;7.690;2023-04-01T03:53:19;3.43;;;1.00;;
16127;SDS011;8168;49.036;7.690;2023-04-01T03:55:50;5.30;;;1.30;;
16127;SDS011;8168;49.036;7.690;2023-04-01T03:58:21;4.10;;;0.67;;
16127;SDS011;8168;49.036;7.690;2023-04-01T04:00:51;5.00;;;1.13;;
16127;SDS011;8168;49.036;7.690;2023-04-01T04:03:22;6.30;;;1.50;;
16127;SDS011;8168;49.036;7.690;2023-04-01T04:05:53;6.60;;;1.20;;
16127;SDS011;8168;49.036;7.690;2023-04-01T04:08:23;2.83;;;0.73;;
16127;SDS011;8168;49.036;7.690;2023-04-01T04:10:55;3.67;;;0.90;;
16127;SDS011;8168;49.036;7.690;2023-04-01T04:13:26;3.77;;;0.90;;
16127;SDS011;8168;49.036;7.690;2023-04-01T04:15:56;1.60;;;0.67;;
16127;SDS011;8168;49.036;7.690;2023-04-01T04:18:27;5.77;;;1.63;;
16127;SDS011;8168;49.036;7.690;2023-04-01T04:20:58;2.03;;;0.67;;
16127;SDS011;8168;49.036;7.690;2023-04-01T04:23:29;1.70;;;0.57;;
16127;SDS011;8168;49.036;7.690;2023-04-01T04:26:02;1.90;;;1.10;;
16127;SDS011;8168;49.036;7.690;2023-04-01T04:28:35;2.73;;;0.53;;
16127;SDS011;8168;49.036;7.690;2023-04-01T04:31:05;3.13;;;0.63;;
16127;SDS011;8168;49.036;7.690;2023-04-01T04:33:37;1.77;;;0.53;;
16127;SDS011;8168;49.036;7.690;2023-04-01T04:36:08;3.77;;;0.83;;
16127;SDS011;8168;49.036;7.690;2023-04-01T04:38:39;2.30;;;0.90;;
16127;SDS011;8168;49.036;7.690;2023-04-01T04:41:16;3.00;;;0.87;;
16127;SDS011;8168;49.036;7.690;2023-04-01T04:43:48;1.40;;;0.80;;
16127;SDS011;8168;49.036;7.690;2023-04-01T04:46:24;2.40;;;1.00;;
16127;SDS011;8168;49.036;7.690;2023-04-01T04:48:55;1.80;;;0.30;;
16127;SDS011;8168;49.036;7.690;2023-04-01T04:51:26;2.57;;;0.80;;
16127;SDS011;8168;49.036;7.690;2023-04-01T04:53:57;0.87;;;0.70;;
16127;SDS011;8168;49.036;7.690;2023-04-01T04:56:27;2.07;;;0.80;;
16127;SDS011;8168;49.036;7.690;2023-04-01T04:58:58;2.20;;;0.70;;
16127;SDS011;8168;49.036;7.690;2023-04-01T05:01:29;3.63;;;1.93;;
16127;SDS011;8168;49.036;7.690;2023-04-01T05:03:59;2.27;;;0.40;;
16127;SDS011;8168;49.036;7.690;2023-04-01T05:06:30;0.80;;;0.80;;
16127;SDS011;8168;49.036;7.690;2023-04-01T05:09:01;0.73;;;0.60;;
16127;SDS011;8168;49.036;7.690;2023-04-01T05:11:32;1.63;;;0.83;;
16127;SDS011;8168;49.036;7.690;2023-04-01T05:14:03;2.00;;;0.47;;
16127;SDS011;8168;49.036;7.690;2023-04-01T05:16:33;2.43;;;0.70;;
16127;SDS011;8168;49.036;7.690;2023-04-01T05:19:04;5.00;;;1.30;;
16127;SDS011;8168;49.036;7.690;2023-04-01T05:21:34;2.10;;;0.33;;
16127;SDS011;8168;49.036;7.690;2023-04-01T05:24:07;0.70;;;0.57;;
16127;SDS011;8168;49.036;7.690;2023-04-01T05:26:39;1.73;;;0.50;;
16127;SDS011;8168;49.036;7.690;2023-04-01T05:29:09;1.90;;;0.50;;
16127;SDS011;8168;49.036;7.690;2023-04-01T05:31:40;2.43;;;0.67;;
16127;SDS011;8168;49.036;7.690;2023-04-01T05:34:11;4.00;;;1.00;;
16127;SDS011;8168;49.036;7.690;2023-04-01T05:36:42;1.97;;;0.40;;
16127;SDS011;8168;49.036;7.690;2023-04-01T05:39:13;1.57;;;0.60;;
16127;SDS011;8168;49.036;7.690;2023-04-01T05:41:43;1.33;;;0.73;;
16127;SDS011;8168;49.036;7.690;2023-04-01T05:44:15;3.83;;;0.60;;
16127;SDS011;8168;49.036;7.690;2023-04-01T05:46:45;2.60;;;0.70;;
16127;SDS011;8168;49.036;7.690;2023-04-01T05:49:16;1.10;;;0.47;;
16127;SDS011;8168;49.036;7.690;2023-04-01T05:51:46;4.10;;;0.40;;
16127;SDS011;8168;49.036;7.690;2023-04-01T05:54:17;1.47;;;0.50;;
16127;SDS011;8168;49.036;7.690;2023-04-01T05:56:48;1.60;;;0.60;;
16127;SDS011;8168;49.036;7.690;2023-04-01T05:59:19;2.47;;;0.60;;
16127;SDS011;8168;49.036;7.690;2023-04-01T06:01:50;3.20;;;0.60;;
16127;SDS011;8168;49.036;7.690;2023-04-01T06:04:21;1.53;;;0.50;;
16127;SDS011;8168;49.036;7.690;2023-04-01T06:06:51;3.13;;;0.50;;
16127;SDS011;8168;49.036;7.690;2023-04-01T06:09:29;1.47;;;0.20;;
16127;SDS011;8168;49.036;7.690;2023-04-01T06:12:06;2.23;;;0.43;;
16127;SDS011;8168;49.036;7.690;2023-04-01T06:14:46;3.07;;;0.73;;
16127;SDS011;8168;49.036;7.690;2023-04-01T06:40:31;0.93;;;0.37;;
16127;SDS011;8168;49.036;7.690;2023-04-01T06:43:16;0.70;;;0.70;;
16127;SDS011;8168;49.036;7.690;2023-04-01T06:48:59;0.77;;;0.40;;
16127;SDS011;8168;49.036;7.690;2023-04-01T06:51:45;4.33;;;0.57;;
16127;SDS011;8168;49.036;7.690;2023-04-01T06:54:48;0.63;;;0.30;;
16127;SDS011;8168;49.036;7.690;2023-04-01T07:00:11;1.93;;;0.57;;
16127;SDS011;8168;49.036;7.690;2023-04-01T07:03:06;0.50;;;0.40;;
16127;SDS011;8168;49.036;7.690;2023-04-01T07:05:41;0.57;;;0.30;;
16127;SDS011;8168;49.036;7.690;2023-04-01T07:08:13;1.83;;;0.20;;
16127;SDS011;8168;49.036;7.690;2023-04-01T07:10:53;0.50;;;0.50;;
16127;SDS011;8168;49.036;7.690;2023-04-01T07:13:36;0.20;;;0.20;;
16127;SDS011;8168;49.036;7.690;2023-04-01T07:24:34;0.20;;;0.20;;
16127;SDS011;8168;49.036;7.690;2023-04-01T07:27:11;1.77;;;0.50;;
16127;SDS011;8168;49.036;7.690;2023-04-01T07:29:43;1.60;;;0.20;;
16127;SDS011;8168;49.036;7.690;2023-04-01T07:43:37;0.73;;;0.40;;
16127;SDS011;8168;49.036;7.690;2023-04-01T07:49:03;0.50;;;0.30;;
16127;SDS011;8168;49.036;7.690;2023-04-01T07:52:06;0.67;;;0.23;;
16127;SDS011;8168;49.036;7.690;2023-04-01T07:54:56;4.13;;;0.60;;
16127;SDS011;8168;49.036;7.690;2023-04-01T08:00:20;1.23;;;0.50;;
16127;SDS011;8168;49.036;7.690;2023-04-01T08:10:47;0.70;;;0.30;;
16127;SDS011;8168;49.036;7.690;2023-04-01T08:13:30;0.40;;;0.23;;
16127;SDS011;8168;49.036;7.690;2023-04-01T08:22:23;1.17;;;0.40;;
16127;SDS011;8168;49.036;7.690;2023-04-01T08:25:01;0.60;;;0.37;;
16127;SDS011;8168;49.036;7.690;2023-04-01T08:27:41;0.13;;;0.10;;
16127;SDS011;8168;49.036;7.690;2023-04-01T08:30:18;0.23;;;0.10;;
16127;SDS011;8168;49.036;7.690;2023-04-01T08:32:53;0.27;;;0.20;;
16127;SDS011;8168;49.036;7.690;2023-04-01T08:35:30;1.40;;;0.30;;
16127;SDS011;8168;49.036;7.690;2023-04-01T08:38:10;1.60;;;0.30;;
16127;SDS011;8168;49.036;7.690;2023-04-01T08:43:59;1.80;;;0.47;;
16127;SDS011;8168;49.036;7.690;2023-04-01T08:46:46;0.17;;;0.17;;
16127;SDS011;8168;49.036;7.690;2023-04-01T08:49:56;0.40;;;0.30;;
16127;SDS011;8168;49.036;7.690;2023-04-01T09:01:55;0.30;;;0.30;;
16127;SDS011;8168;49.036;7.690;2023-04-01T09:24:57;3.87;;;0.50;;
16127;SDS011;8168;49.036;7.690;2023-04-01T09:30:42;1.10;;;0.60;;
16127;SDS011;8168;49.036;7.690;2023-04-01T09:42:42;0.33;;;0.33;;
16127;SDS011;8168;49.036;7.690;2023-04-01T09:48:34;1.03;;;0.30;;
16127;SDS011;8168;49.036;7.690;2023-04-01T09:50:52;0.63;;;0.30;;
16127;SDS011;8168;49.036;7.690;2023-04-01T10:05:12;0.97;;;0.60;;
16127;SDS011;8168;49.036;7.690;2023-04-01T10:19:39;0.77;;;0.60;;
16127;SDS011;8168;49.036;7.690;2023-04-01T10:42:13;1.93;;;0.90;;
16127;SDS011;8168;49.036;7.690;2023-04-01T10:45:17;0.50;;;0.50;;
16127;SDS011;8168;49.036;7.690;2023-04-01T10:58:59;1.07;;;0.50;;
16127;SDS011;8168;49.036;7.690;2023-04-01T11:24:54;0.97;;;0.40;;
16127;SDS011;8168;49.036;7.690;2023-04-01T11:30:14;0.40;;;0.40;;
16127;SDS011;8168;49.036;7.690;2023-04-01T11:36:11;0.53;;;0.53;;
16127;SDS011;8168;49.036;7.690;2023-04-01T12:03:37;1.07;;;0.30;;
16127;SDS011;8168;49.036;7.690;2023-04-01T12:20:49;0.63;;;0.60;;
16127;SDS011;8168;49.036;7.690;2023-04-01T12:26:26;0.67;;;0.67;;
16127;SDS011;8168;49.036;7.690;2023-04-01T12:32:25;4.80;;;0.90;;
16127;SDS011;8168;49.036;7.690;2023-04-01T12:41:12;1.00;;;0.93;;
16127;SDS011;8168;49.036;7.690;2023-04-01T12:43:32;1.37;;;0.70;;
16127;SDS011;8168;49.036;7.690;2023-04-01T12:46:25;0.50;;;0.50;;
16127;SDS011;8168;49.036;7.690;2023-04-01T12:52:03;0.57;;;0.57;;
16127;SDS011;8168;49.036;7.690;2023-04-01T12:54:48;0.53;;;0.53;;
16127;SDS011;8168;49.036;7.690;2023-04-01T13:28:50;0.30;;;0.30;;
16127;SDS011;8168;49.036;7.690;2023-04-01T13:31:31;0.50;;;0.50;;
16127;SDS011;8168;49.036;7.690;2023-04-01T13:45:02;0.83;;;0.60;;
16127;SDS011;8168;49.036;7.690;2023-04-01T13:53:27;2.37;;;0.87;;
16127;SDS011;8168;49.036;7.690;2023-04-01T13:56:28;0.70;;;0.70;;
16127;SDS011;8168;49.036;7.690;2023-04-01T14:14:32;0.57;;;0.57;;
16127;SDS011;8168;49.036;7.690;2023-04-01T14:23:13;1.23;;;1.00;;
16127;SDS011;8168;49.036;7.690;2023-04-01T14:26:10;0.67;;;0.67;;
16127;SDS011;8168;49.036;7.690;2023-04-01T14:28:45;0.73;;;0.70;;
16127;SDS011;8168;49.036;7.690;2023-04-01T14:48:38;0.83;;;0.80;;
16127;SDS011;8168;49.036;7.690;2023-04-01T14:51:16;2.03;;;1.00;;
16127;SDS011;8168;49.036;7.690;2023-04-01T14:54:00;1.57;;;0.67;;
16127;SDS011;8168;49.036;7.690;2023-04-01T14:56:44;0.80;;;0.70;;
16127;SDS011;8168;49.036;7.690;2023-04-01T15:01:59;1.63;;;1.10;;
16127;SDS011;8168;49.036;7.690;2023-04-01T15:04:53;0.90;;;0.80;;
16127;SDS011;8168;49.036;7.690;2023-04-01T15:13:24;1.50;;;1.00;;
16127;SDS011;8168;49.036;7.690;2023-04-01T15:27:53;1.90;;;0.83;;
16127;SDS011;8168;49.036;7.690;2023-04-01T15:30:40;1.57;;;0.90;;
16127;SDS011;8168;49.036;7.690;2023-04-01T15:56:44;0.77;;;0.77;;
16127;SDS011;8168;49.036;7.690;2023-04-01T16:13:28;0.80;;;0.60;;
16127;SDS011;8168;49.036;7.690;2023-04-01T16:22:06;2.63;;;0.97;;
16127;SDS011;8168;49.036;7.690;2023-04-01T16:31:02;1.00;;;0.80;;
16127;SDS011;8168;49.036;7.690;2023-04-01T16:40:02;1.40;;;1.10;;
16127;SDS011;8168;49.036;7.690;2023-04-01T16:43:04;0.60;;;0.50;;
16127;SDS011;8168;49.036;7.690;2023-04-01T16:48:57;1.13;;;0.50;;
16127;SDS011;8168;49.036;7.690;2023-04-01T17:02:32;0.80;;;0.50;;
16127;SDS011;8168;49.036;7.690;2023-04-01T17:05:08;1.33;;;0.70;;
16127;SDS011;8168;49.036;7.690;2023-04-01T17:08:01;0.70;;;0.70;;
16127;SDS011;8168;49.036;7.690;2023-04-01T17:10:53;0.77;;;0.30;;
16127;SDS011;8168;49.036;7.690;2023-04-01T17:13:41;0.70;;;0.40;;
16127;SDS011;8168;49.036;7.690;2023-04-01T17:30:35;1.23;;;0.60;;
16127;SDS011;8168;49.036;7.690;2023-04-01T17:52:42;1.23;;;0.90;;
16127;SDS011;8168;49.036;7.690;2023-04-01T17:55:45;2.27;;;1.10;;
16127;SDS011;8168;49.036;7.690;2023-04-01T18:07:00;1.00;;;0.90;;
16127;SDS011;8168;49.036;7.690;2023-04-01T18:10:05;1.10;;;0.90;;
16127;SDS011;8168;49.036;7.690;2023-04-01T18:24:54;1.63;;;1.23;;
16127;SDS011;8168;49.036;7.690;2023-04-01T18:27:47;4.53;;;1.70;;
16127;SDS011;8168;49.036;7.690;2023-04-01T18:30:26;1.30;;;1.10;;
16127;SDS011;8168;49.036;7.690;2023-04-01T18:33:15;0.87;;;0.87;;
16127;SDS011;8168;49.036;7.690;2023-04-01T18:35:54;2.37;;;1.27;;
16127;SDS011;8168;49.036;7.690;2023-04-01T18:38:31;0.83;;;0.83;;
16127;SDS011;8168;49.036;7.690;2023-04-01T18:50:13;1.17;;;1.00;;
16127;SDS011;8168;49.036;7.690;2023-04-01T18:53:08;1.07;;;0.97;;
16127;SDS011;8168;49.036;7.690;2023-04-01T18:55:55;1.07;;;1.00;;
16127;SDS011;8168;49.036;7.690;2023-04-01T18:58:32;1.43;;;0.90;;
16127;SDS011;8168;49.036;7.690;2023-04-01T19:10:17;3.60;;;1.57;;
16127;SDS011;8168;49.036;7.690;2023-04-01T19:13:17;1.87;;;1.63;;
16127;SDS011;8168;49.036;7.690;2023-04-01T19:15:57;2.23;;;1.57;;
16127;SDS011;8168;49.036;7.690;2023-04-01T19:21:56;3.63;;;2.20;;
16127;SDS011;8168;49.036;7.690;2023-04-01T19:24:45;3.43;;;2.20;;
16127;SDS011;8168;49.036;7.690;2023-04-01T19:27:50;4.90;;;4.50;;
16127;SDS011;8168;49.036;7.690;2023-04-01T19:50:31;1.57;;;1.20;;
16127;SDS011;8168;49.036;7.690;2023-04-01T19:53:25;1.50;;;1.40;;
16127;SDS011;8168;49.036;7.690;2023-04-01T20:04:14;0.80;;;0.70;;
16127;SDS011;8168;49.036;7.690;2023-04-01T20:07:00;0.77;;;0.70;;
16127;SDS011;8168;49.036;7.690;2023-04-01T20:12:36;1.13;;;0.83;;
16127;SDS011;8168;49.036;7.690;2023-04-01T20:18:15;1.50;;;1.27;;
16127;SDS011;8168;49.036;7.690;2023-04-01T20:20:57;1.00;;;0.90;;
16127;SDS011;8168;49.036;7.690;2023-04-01T20:23:45;0.73;;;0.50;;
16127;SDS011;8168;49.036;7.690;2023-04-01T20:26:28;0.63;;;0.63;;
16127;SDS011;8168;49.036;7.690;2023-04-01T20:29:35;1.17;;;0.73;;
16127;SDS011;8168;49.036;7.690;2023-04-01T20:37:28;0.57;;;0.57;;
16127;SDS011;8168;49.036;7.690;2023-04-01T20:45:37;3.57;;;1.40;;
16127;SDS011;8168;49.036;7.690;2023-04-01T20:51:13;1.63;;;1.00;;
16127;SDS011;8168;49.036;7.690;2023-04-01T20:54:19;0.80;;;0.80;;
16127;SDS011;8168;49.036;7.690;2023-04-01T20:56:57;3.90;;;1.17;;
16127;SDS011;8168;49.036;7.690;2023-04-01T21:39:10;0.80;;;0.80;;
16127;SDS011;8168;49.036;7.690;2023-04-01T21:44:41;1.50;;;1.20;;
16127;SDS011;8168;49.036;7.690;2023-04-01T21:50:35;1.63;;;1.27;;
16127;SDS011;8168;49.036;7.690;2023-04-01T22:10:58;1.20;;;1.10;;
16127;SDS011;8168;49.036;7.690;2023-04-01T22:14:30;1.77;;;1.20;;
16127;SDS011;8168;49.036;7.690;2023-04-01T22:17:32;3.30;;;1.20;;
16127;SDS011;8168;49.036;7.690;2023-04-01T22:20:04;1.43;;;1.33;;
16127;SDS011;8168;49.036;7.690;2023-04-01T22:25:45;3.17;;;1.20;;
16127;SDS011;8168;49.036;7.690;2023-04-01T22:28:20;3.20;;;1.40;;
16127;SDS011;8168;49.036;7.690;2023-04-01T22:30:52;3.13;;;1.70;;
16127;SDS011;8168;49.036;7.690;2023-04-01T22:33:32;4.30;;;1.17;;
16127;SDS011;8168;49.036;7.690;2023-04-01T22:38:58;2.53;;;1.67;;
16127;SDS011;8168;49.036;7.690;2023-04-01T22:41:53;2.07;;;1.60;;
16127;SDS011;8168;49.036;7.690;2023-04-01T22:49:51;2.57;;;1.93;;
16127;SDS011;8168;49.036;7.690;2023-04-01T22:52:42;2.67;;;1.67;;
16127;SDS011;8168;49.036;7.690;2023-04-01T22:57:58;2.10;;;1.90;;
16127;SDS011;8168;49.036;7.690;2023-04-01T23:00:33;2.23;;;1.80;;
16127;SDS011;8168;49.036;7.690;2023-04-01T23:03:29;3.13;;;2.10;;
16127;SDS011;8168;49.036;7.690;2023-04-01T23:06:03;1.87;;;1.70;;
16127;SDS011;8168;49.036;7.690;2023-04-01T23:11:28;1.70;;;1.50;;
16127;SDS011;8168;49.036;7.690;2023-04-01T23:20:35;2.03;;;1.50;;
16127;SDS011;8168;49.036;7.690;2023-04-01T23:26:14;1.90;;;1.70;;
16127;SDS011;8168;49.036;7.690;2023-04-01T23:28:55;3.93;;;1.43;;
16127;SDS011;8168;49.036;7.690;2023-04-01T23:31:33;2.70;;;1.33;;
16127;SDS011;8168;49.036;7.690;2023-04-01T23:36:44;2.37;;;1.80;;
16127;SDS011;8168;49.036;7.690;2023-04-01T23:39:25;3.67;;;1.70;;
16127;SDS011;8168;49.036;7.690;2023-04-01T23:42:14;2.10;;;1.57;;
16127;SDS011;8168;49.036;7.690;2023-04-01T23:44:50;1.80;;;1.70;;
16127;SDS011;8168;49.036;7.690;2023-04-01T23:47:32;1.70;;;1.60;;
16127;SDS011;8168;49.036;7.690;2023-04-01T23:52:36;4.47;;;2.20;;
16127;SDS011;8168;49.036;7.690;2023-04-01T23:55:19;2.33;;;1.63;;
